Vremea acum in Timișoara - Romania

Vrei sa afli care e starea vremii acum in Timis - Romania? Dorim sa iti furnizam starea vremii pentru Timis - Romania. Starea vremii Timis - Romania pentru astazi.

Vremea acum in Timișoara

Temperatura: 7 °C

Este: Senin
Se simte ca: 5.7 °C
Innorat: 0 %
Precipitatii: 0 %
Presiune atmosferica: 1019 hPa
Umiditate: 76%
Vizibilitate: 10 km
Vantul bate din SE cu 7.2 km/h

Evolutia vremii in Timișoara pe ore

Ora: 09:00
Senin
Temperatura: 12°C
Sansa de precipitatii: 0%
Ora Descriere Temp Se simte Precipitatii Umiditate Vant
00:00Senin10.7°10.3°0%64%NNW 5.8 KM/H
01:00Senin9.9°10.3°0%67%N 3.2 KM/H
02:00Senin9.4°9.8°0%69%E 3.2 KM/H
03:00Senin8.8°0%72%ESE 6.1 KM/H
04:00Senin7.9°6.5°0%75%SE 8.3 KM/H
05:00Senin0%76%SE 7.2 KM/H
06:00Senin6.8°5.5°0%77%ESE 7.2 KM/H
07:00Senin7.2°5.9°0%77%ESE 7.2 KM/H
08:00Senin9.6°9.3°0%70%ESE 5 KM/H
09:00Senin12°12°0%62%E 1.8 KM/H
10:00Senin14.4°14.4°0%57%ESE 2.2 KM/H
11:00Senin16.2°16.2°0%53%SE 4.7 KM/H
12:00Senin18.1°18.1°0%50%NNW 4.7 KM/H
13:00Senin19.4°19.4°0%47%NNW 7.6 KM/H
14:00Senin20.7°20.7°0%44%N 7.2 KM/H
15:00Senin21.6°21.6°0%42%N 6.8 KM/H
16:00Senin22.1°24.1°0%40%N 6.5 KM/H
17:00Senin22.3°24.1°0%39%N 5.8 KM/H
18:00Senin22.1°24°0%39%N 4.3 KM/H
19:00Senin21.8°21.8°0%49%N 2.5 KM/H
20:00Senin18.7°18.7°0%54%NNE 1.4 KM/H
21:00Senin15.8°15.8°0%57%SSE 1.1 KM/H
22:00Senin14.8°14.8°0%60%S 2.5 KM/H
23:00Senin13.9°14.7°0%62%S 3.2 KM/H




tutorials